Terminal Aerodrome Forecast
Issued by NWS

Home | Current Version | Previous Version | Text Only | Print | Product List | Glossary On
Versions: 1 2 3 4 5 6 7 8 9 10 11 12 13 14 15
000
FTUS43 KGRB 272300
TAFATW
TAF
KATW 272324Z 2800/2824 29009G15KT P6SM BKN015 OVC020
      TEMPO 2801/2805 SCT018 BKN022
     FM280500 28007KT P6SM SCT020 SCT080
     FM280700 27005KT P6SM SKC
     FM281500 29008KT P6SM SCT035 SCT070
     FM282200 30006KT P6SM FEW070=

USA.gov is the U.S. government's official web portal to all federal, state and local government web resources and services.